Dampier, Australia
Current Conditions -  °F | °C
As of 9:30 AM on Thursday 27 Nov 2014 (Local Time) from YPPD Reporting Station
Clear Clear  
Wind Chill: 95°   Ceiling: Unl
Heat Index: 95°   Visibility: 6mi
Dew Point: 61°   Wind: 16mph
Humidity: 32%   Direction: 110°ESE
Pressure: 29.8"   Gusts: NA
Location:  20.66°S, 116.71°E
Report Text: YPPD 270130Z 11014KT CAVOK 35/16 Q1009
Loading
Personal Weather Stations






























Interactive Weather Map New forecast layout! Learn more

10-Day Weather Forecast

Advertisements
Track Severe Weather on mobile